createdAt,value
2023-04-06T00:02:07.551Z,101254.05
2023-04-06T00:07:13.233Z,101250.86
2023-04-06T00:12:18.759Z,101247.14
2023-04-06T00:17:24.348Z,101238.56
2023-04-06T00:22:29.874Z,101236.98
2023-04-06T00:27:35.388Z,101235.89
2023-04-06T00:32:40.866Z,101235.88
2023-04-06T00:37:51.193Z,101224.76
2023-04-06T00:42:56.822Z,101220.80
2023-04-06T00:48:06.166Z,101218.88
2023-04-06T00:53:12.155Z,101219.92
2023-04-06T00:58:20.579Z,101215.63
2023-04-06T01:03:30.333Z,101210.48
2023-04-06T01:08:36.801Z,101208.23
2023-04-06T01:13:58.607Z,101207.15
2023-04-06T01:19:15.283Z,101204.37
2023-04-06T01:24:25.265Z,101204.46
2023-04-06T01:29:58.953Z,101199.42
2023-04-06T01:35:37.516Z,101196.15
2023-04-06T01:40:51.833Z,101188.90
2023-04-06T01:45:59.303Z,101184.08
2023-04-06T01:51:08.536Z,101181.11
2023-04-06T01:56:17.887Z,101175.41
2023-04-06T02:01:32.614Z,101181.02
2023-04-06T02:06:38.280Z,101178.40
2023-04-06T02:11:44.534Z,101175.56
2023-04-06T02:16:50.613Z,101171.54
2023-04-06T02:21:56.634Z,101167.16
2023-04-06T02:27:02.162Z,101164.38
2023-04-06T02:32:08.344Z,101160.02
2023-04-06T02:37:14.140Z,101160.09
2023-04-06T02:42:19.827Z,101157.39
2023-04-06T02:47:27.109Z,101154.39
2023-04-06T02:52:32.979Z,101152.92
2023-04-06T02:57:39.717Z,101154.10
2023-04-06T03:02:45.712Z,101153.30
2023-04-06T03:07:54.143Z,101156.30
2023-04-06T03:13:07.193Z,101157.82
2023-04-06T03:18:26.413Z,101158.84
2023-04-06T03:23:33.437Z,101160.59
2023-04-06T03:28:40.203Z,101166.26
2023-04-06T03:33:46.418Z,101165.66
2023-04-06T03:39:06.038Z,101166.30
2023-04-06T03:44:13.996Z,101163.34
2023-04-06T03:49:19.485Z,101160.73
2023-04-06T03:54:26.716Z,101162.81
2023-04-06T03:59:32.414Z,101162.49
2023-04-06T04:04:38.016Z,101163.75
2023-04-06T04:09:43.760Z,101163.82
2023-04-06T04:14:50.376Z,101164.45
2023-04-06T04:19:56.065Z,101161.80
2023-04-06T04:25:01.526Z,101159.25
2023-04-06T04:30:09.078Z,101149.39
2023-04-06T04:35:14.947Z,101149.16
2023-04-06T04:40:21.943Z,101148.48
2023-04-06T04:45:31.284Z,101149.02
2023-04-06T04:50:39.247Z,101140.86
2023-04-06T04:55:45.285Z,101137.70
2023-04-06T05:00:51.203Z,101135.18
2023-04-06T05:05:57.471Z,101133.56
2023-04-06T05:11:05.496Z,101132.34
2023-04-06T05:16:14.660Z,101135.27
2023-04-06T05:21:21.302Z,101145.38
2023-04-06T05:26:49.354Z,101139.96
2023-04-06T05:31:59.607Z,101137.67
2023-04-06T05:37:05.788Z,101136.23
2023-04-06T05:42:12.377Z,101127.22
2023-04-06T05:47:37.752Z,101122.58
2023-04-06T05:52:52.038Z,101122.91
2023-04-06T05:57:59.764Z,101119.02
2023-04-06T06:03:06.978Z,101107.98
2023-04-06T06:08:13.369Z,101104.93
2023-04-06T06:13:19.341Z,101105.53
2023-04-06T06:18:25.386Z,101109.92
2023-04-06T06:23:32.218Z,101102.11
2023-04-06T06:28:38.187Z,101105.77
2023-04-06T06:33:44.040Z,101105.73
2023-04-06T06:38:49.536Z,101107.31
2023-04-06T06:43:56.932Z,101107.70
2023-04-06T06:49:04.231Z,101099.90
2023-04-06T06:54:10.559Z,101096.09
2023-04-06T06:59:17.323Z,101093.84
2023-04-06T07:04:24.574Z,101093.98
2023-04-06T07:09:30.238Z,101083.99
2023-04-06T07:14:35.845Z,101085.30
2023-04-06T07:19:41.836Z,101080.98
2023-04-06T07:24:47.516Z,101082.55
2023-04-06T07:29:53.471Z,101080.46
2023-04-06T07:34:59.840Z,101079.91
2023-04-06T07:40:06.894Z,101076.61
2023-04-06T07:45:14.159Z,101082.30
2023-04-06T07:50:20.363Z,101081.39
2023-04-06T07:55:26.817Z,101082.66
2023-04-06T08:00:32.189Z,101084.42
2023-04-06T08:05:37.627Z,101081.98
2023-04-06T08:10:44.175Z,101073.67
2023-04-06T08:15:49.740Z,101074.85
2023-04-06T08:20:56.998Z,101073.48
2023-04-06T08:26:02.574Z,101076.06
2023-04-06T08:31:08.907Z,101077.41
2023-04-06T08:36:16.139Z,101072.23
2023-04-06T08:41:21.880Z,101066.10
2023-04-06T08:46:31.503Z,101066.53
2023-04-06T08:51:38.440Z,101066.48
2023-04-06T08:56:44.434Z,101064.17
2023-04-06T09:01:50.179Z,101058.64
2023-04-06T09:06:56.128Z,101056.09
2023-04-06T09:12:06.876Z,101051.88
2023-04-06T09:17:22.838Z,101041.82
2023-04-06T09:22:38.352Z,101030.27
2023-04-06T09:27:45.461Z,101028.65
2023-04-06T09:32:53.488Z,101020.86
2023-04-06T09:37:59.596Z,101017.38
2023-04-06T09:43:08.049Z,101016.76
2023-04-06T09:48:13.884Z,101011.73
2023-04-06T09:53:22.305Z,101006.84
2023-04-06T09:58:28.704Z,100993.39
2023-04-06T10:03:46.050Z,100984.30
2023-04-06T10:09:10.755Z,100985.70
2023-04-06T10:14:16.773Z,100977.04
2023-04-06T10:19:27.625Z,100971.58
2023-04-06T10:24:33.157Z,100975.83
2023-04-06T10:29:48.716Z,100977.31
2023-04-06T10:34:54.457Z,100982.77
2023-04-06T10:40:00.259Z,100976.44
2023-04-06T10:45:08.443Z,100968.64
2023-04-06T10:50:18.259Z,100962.33
2023-04-06T10:55:25.401Z,100954.12
2023-04-06T11:00:39.685Z,100951.36
2023-04-06T11:05:56.203Z,100953.23
2023-04-06T11:11:10.677Z,100945.77
2023-04-06T11:16:18.724Z,100946.22
2023-04-06T11:21:36.394Z,100939.92
2023-04-06T11:26:44.875Z,100933.45
2023-04-06T11:32:00.975Z,100933.20
2023-04-06T11:37:10.690Z,100930.15
2023-04-06T11:42:33.404Z,100926.08
2023-04-06T11:47:39.786Z,100924.54
2023-04-06T11:52:45.369Z,100911.67
2023-04-06T11:57:52.938Z,100904.02
2023-04-06T12:03:00.385Z,100893.89
2023-04-06T12:08:06.228Z,100885.85
2023-04-06T12:13:12.950Z,100879.66
2023-04-06T12:18:19.636Z,100872.24
2023-04-06T12:23:25.328Z,100865.30
2023-04-06T12:28:31.235Z,100867.34
2023-04-06T12:33:36.793Z,100865.29
2023-04-06T12:38:43.040Z,100869.96
2023-04-06T12:43:50.632Z,100860.06
2023-04-06T12:48:57.535Z,100850.10
2023-04-06T12:54:03.747Z,100846.98
2023-04-06T12:59:09.729Z,100850.70
2023-04-06T13:04:17.068Z,100850.16
2023-04-06T13:09:23.209Z,100849.68
2023-04-06T13:14:28.865Z,100841.29
2023-04-06T13:19:34.880Z,100834.02
2023-04-06T13:24:40.681Z,100831.55
2023-04-06T13:29:46.358Z,100827.86
2023-04-06T13:34:55.214Z,100824.41
2023-04-06T13:40:01.373Z,100826.65
2023-04-06T13:45:08.788Z,100827.98
2023-04-06T13:50:14.676Z,100822.06
2023-04-06T13:55:20.406Z,100809.57
2023-04-06T14:00:26.631Z,100802.86
2023-04-06T14:05:34.472Z,100799.77
2023-04-06T14:10:43.438Z,100800.31
2023-04-06T14:15:53.619Z,100795.14
2023-04-06T14:21:00.148Z,100794.63
2023-04-06T14:26:07.416Z,100789.32
2023-04-06T14:31:16.171Z,100784.03
2023-04-06T14:36:22.246Z,100787.31
2023-04-06T14:41:28.128Z,100785.48
2023-04-06T14:46:34.589Z,100788.09
2023-04-06T14:51:40.238Z,100774.71
2023-04-06T14:56:45.816Z,100768.56
2023-04-06T15:01:52.335Z,100763.40
2023-04-06T15:06:58.666Z,100771.95
2023-04-06T15:12:04.507Z,100772.80
2023-04-06T15:17:10.270Z,100775.37
2023-04-06T15:22:16.013Z,100774.52
2023-04-06T15:27:21.782Z,100776.04
2023-04-06T15:32:31.332Z,100765.30
2023-04-06T15:37:41.879Z,100762.84
2023-04-06T15:42:47.573Z,100762.95
2023-04-06T15:47:53.977Z,100755.58
2023-04-06T15:52:59.655Z,100744.02
2023-04-06T15:58:07.217Z,100745.73
2023-04-06T16:03:12.739Z,100757.02
2023-04-06T16:08:19.708Z,100754.36
2023-04-06T16:13:25.482Z,100754.14
2023-04-06T16:18:32.090Z,100758.24
2023-04-06T16:23:38.919Z,100757.93
2023-04-06T16:28:44.446Z,100755.05
2023-04-06T16:33:50.808Z,100746.24
2023-04-06T16:38:56.418Z,100739.20
2023-04-06T16:44:02.312Z,100747.15
2023-04-06T16:49:08.015Z,100742.85
2023-04-06T16:54:13.684Z,100739.56
2023-04-06T16:59:19.338Z,100740.02
2023-04-06T17:04:25.571Z,100738.79
2023-04-06T17:14:39.325Z,100746.91
2023-04-06T17:19:44.954Z,100745.86
2023-04-06T17:24:51.305Z,100741.73
2023-04-06T17:29:56.931Z,100743.63
2023-04-06T17:35:02.767Z,100741.02
2023-04-06T17:40:10.279Z,100740.81
2023-04-06T17:45:15.790Z,100752.83
2023-04-06T17:50:21.389Z,100754.92
2023-04-06T17:55:27.753Z,100752.03
2023-04-06T18:00:33.808Z,100745.66
2023-04-06T18:05:39.825Z,100750.77
2023-04-06T18:10:46.099Z,100753.04
2023-04-06T18:15:54.438Z,100753.94
2023-04-06T18:21:05.444Z,100752.04
2023-04-06T18:26:17.780Z,100754.59
2023-04-06T18:31:27.679Z,100749.46
2023-04-06T18:36:33.474Z,100742.61
2023-04-06T18:41:39.636Z,100739.37
2023-04-06T18:46:46.654Z,100736.77
2023-04-06T18:51:53.775Z,100730.73
2023-04-06T18:56:59.516Z,100732.98
2023-04-06T19:02:05.052Z,100731.08
2023-04-06T19:07:11.649Z,100733.13
2023-04-06T19:12:16.997Z,100730.37
2023-04-06T19:17:22.776Z,100723.66
2023-04-06T19:22:28.299Z,100720.56
2023-04-06T19:27:34.208Z,100715.58
2023-04-06T19:32:41.277Z,100704.60
2023-04-06T19:37:46.674Z,100701.48
2023-04-06T19:42:52.012Z,100701.11
2023-04-06T19:47:57.428Z,100711.11
2023-04-06T19:53:03.400Z,100697.88
2023-04-06T19:58:08.895Z,100698.73
2023-04-06T20:03:14.449Z,100700.46
2023-04-06T20:08:20.601Z,100696.84
2023-04-06T20:13:26.573Z,100703.00
2023-04-06T20:18:32.217Z,100691.01
2023-04-06T20:23:37.798Z,100682.95
2023-04-06T20:28:43.452Z,100682.23
2023-04-06T20:33:48.904Z,100685.48
2023-04-06T20:38:55.004Z,100681.89
2023-04-06T20:44:00.384Z,100685.54
2023-04-06T20:49:06.112Z,100676.25
2023-04-06T20:54:11.821Z,100669.03
2023-04-06T20:59:17.196Z,100667.30
2023-04-06T21:04:23.226Z,100665.96
2023-04-06T21:09:28.922Z,100670.98
2023-04-06T21:14:34.589Z,100670.46
2023-04-06T21:19:39.956Z,100670.14
2023-04-06T21:24:45.775Z,100664.69
2023-04-06T21:29:51.479Z,100665.77
2023-04-06T21:34:56.881Z,100659.76
2023-04-06T21:40:02.571Z,100655.30
2023-04-06T21:45:09.590Z,100644.84
2023-04-06T21:50:16.166Z,100641.91
2023-04-06T21:55:22.019Z,100637.09
2023-04-06T22:00:27.540Z,100630.75
2023-04-06T22:05:33.203Z,100625.27
2023-04-06T22:10:40.811Z,100621.34
2023-04-06T22:15:46.905Z,100613.78
2023-04-06T22:20:52.548Z,100612.05
2023-04-06T22:25:58.199Z,100609.15
2023-04-06T22:31:03.966Z,100609.52
2023-04-06T22:36:09.883Z,100607.09
2023-04-06T22:41:15.504Z,100598.17
2023-04-06T22:46:22.525Z,100597.34
2023-04-06T22:51:28.498Z,100593.59
2023-04-06T22:56:33.942Z,100592.04
2023-04-06T23:01:42.278Z,100585.85
2023-04-06T23:06:47.759Z,100586.03
2023-04-06T23:11:53.525Z,100582.09
2023-04-06T23:16:58.978Z,100575.39
2023-04-06T23:22:04.449Z,100565.92
2023-04-06T23:27:10.026Z,100564.71
2023-04-06T23:32:16.190Z,100561.45
2023-04-06T23:37:21.733Z,100558.69
2023-04-06T23:42:28.733Z,100553.55
2023-04-06T23:47:34.666Z,100554.41
2023-04-06T23:52:40.552Z,100548.23
2023-04-06T23:57:46.151Z,100539.78
